sensor_id;sensor_type;location;lat;lon;timestamp;pressure;altitude;pressure_sealevel;temperature;humidity
45793;BME280;31495;42.740;22.908;2023-02-14T00:00:10;94449.19;;;-3.27;69.36
45793;BME280;31495;42.740;22.908;2023-02-14T00:01:11;94461.81;;;-3.12;69.13
45793;BME280;31495;42.740;22.908;2023-02-14T00:02:11;94490.88;;;-2.91;69.43
45793;BME280;31495;42.740;22.908;2023-02-14T00:03:12;94461.91;;;-3.14;69.52
45793;BME280;31495;42.740;22.908;2023-02-14T00:04:13;94483.31;;;-3.05;69.13
45793;BME280;31495;42.740;22.908;2023-02-14T00:05:14;94459.66;;;-3.19;69.48
45793;BME280;31495;42.740;22.908;2023-02-14T00:06:14;94485.84;;;-3.05;70.00
45793;BME280;31495;42.740;22.908;2023-02-14T00:07:14;94375.47;;;-3.77;69.73
45793;BME280;31495;42.740;22.908;2023-02-14T00:08:14;94452.66;;;-3.42;70.26
45793;BME280;31495;42.740;22.908;2023-02-14T00:09:16;94464.47;;;-3.43;70.49
45793;BME280;31495;42.740;22.908;2023-02-14T00:10:16;94473.97;;;-3.32;70.15
45793;BME280;31495;42.740;22.908;2023-02-14T00:11:16;94494.22;;;-3.18;70.14
45793;BME280;31495;42.740;22.908;2023-02-14T00:12:15;94492.72;;;-3.07;69.88
45793;BME280;31495;42.740;22.908;2023-02-14T00:13:15;94456.78;;;-3.27;69.98
45793;BME280;31495;42.740;22.908;2023-02-14T00:14:15;94439.81;;;-3.39;70.36
45793;BME280;31495;42.740;22.908;2023-02-14T00:15:34;94486.25;;;-3.11;70.09
45793;BME280;31495;42.740;22.908;2023-02-14T00:16:33;94426.75;;;-3.46;70.24
45793;BME280;31495;42.740;22.908;2023-02-14T00:17:32;94477.38;;;-3.19;70.17
45793;BME280;31495;42.740;22.908;2023-02-14T00:18:32;94494.47;;;-3.08;70.58
45793;BME280;31495;42.740;22.908;2023-02-14T00:19:50;94502.25;;;-3.11;70.30
45793;BME280;31495;42.740;22.908;2023-02-14T00:20:49;94456.44;;;-3.35;70.35
45793;BME280;31495;42.740;22.908;2023-02-14T00:21:49;94450.03;;;-3.41;70.30
45793;BME280;31495;42.740;22.908;2023-02-14T00:22:49;94465.91;;;-3.24;70.13
45793;BME280;31495;42.740;22.908;2023-02-14T00:23:49;94486.25;;;-3.11;69.77
45793;BME280;31495;42.740;22.908;2023-02-14T00:24:48;94497.09;;;-3.09;69.62
45793;BME280;31495;42.740;22.908;2023-02-14T00:25:47;94499.69;;;-3.11;69.75
45793;BME280;31495;42.740;22.908;2023-02-14T00:26:47;94478.31;;;-3.20;69.91
45793;BME280;31495;42.740;22.908;2023-02-14T00:27:47;94499.72;;;-3.25;70.13
45793;BME280;31495;42.740;22.908;2023-02-14T00:28:47;94488.53;;;-3.36;69.89
45793;BME280;31495;42.740;22.908;2023-02-14T00:29:46;94491.88;;;-3.35;69.79
45793;BME280;31495;42.740;22.908;2023-02-14T00:30:46;94492.88;;;-3.38;70.06
45793;BME280;31495;42.740;22.908;2023-02-14T00:31:47;94494.75;;;-3.27;70.34
45793;BME280;31495;42.740;22.908;2023-02-14T00:32:46;94491.31;;;-3.26;70.22
45793;BME280;31495;42.740;22.908;2023-02-14T00:33:46;94489.88;;;-3.30;70.35
45793;BME280;31495;42.740;22.908;2023-02-14T00:34:45;94464.38;;;-3.41;70.61
45793;BME280;31495;42.740;22.908;2023-02-14T00:35:45;94487.50;;;-3.19;70.67
45793;BME280;31495;42.740;22.908;2023-02-14T00:36:45;94491.75;;;-3.19;71.38
45793;BME280;31495;42.740;22.908;2023-02-14T00:37:45;94496.38;;;-3.26;71.51
45793;BME280;31495;42.740;22.908;2023-02-14T00:38:45;94491.22;;;-3.24;71.33
45793;BME280;31495;42.740;22.908;2023-02-14T00:39:45;94413.84;;;-3.70;70.95
45793;BME280;31495;42.740;22.908;2023-02-14T00:40:44;94452.75;;;-3.44;71.31
45793;BME280;31495;42.740;22.908;2023-02-14T00:41:44;94446.97;;;-3.46;71.33
45793;BME280;31495;42.740;22.908;2023-02-14T00:42:44;94490.53;;;-3.41;71.95
45793;BME280;31495;42.740;22.908;2023-02-14T00:43:48;94447.06;;;-3.62;72.73
45793;BME280;31495;42.740;22.908;2023-02-14T00:44:47;94476.59;;;-3.34;73.24
45793;BME280;31495;42.740;22.908;2023-02-14T00:45:47;94406.69;;;-3.78;73.52
45793;BME280;31495;42.740;22.908;2023-02-14T00:46:47;94396.72;;;-4.08;73.11
45793;BME280;31495;42.740;22.908;2023-02-14T00:47:46;94432.44;;;-3.71;72.84
45793;BME280;31495;42.740;22.908;2023-02-14T00:48:46;94484.38;;;-3.37;73.26
45793;BME280;31495;42.740;22.908;2023-02-14T00:49:45;94438.94;;;-3.67;72.75
45793;BME280;31495;42.740;22.908;2023-02-14T00:50:45;94474.31;;;-3.24;73.78
45793;BME280;31495;42.740;22.908;2023-02-14T00:51:44;94421.78;;;-3.62;74.36
45793;BME280;31495;42.740;22.908;2023-02-14T00:52:44;94472.69;;;-3.25;74.09
45793;BME280;31495;42.740;22.908;2023-02-14T00:53:44;94417.09;;;-3.26;75.60
45793;BME280;31495;42.740;22.908;2023-02-14T00:54:45;94472.53;;;-2.94;75.36
45793;BME280;31495;42.740;22.908;2023-02-14T00:55:44;94454.19;;;-2.98;74.68
45793;BME280;31495;42.740;22.908;2023-02-14T00:56:45;94462.66;;;-2.85;74.13
45793;BME280;31495;42.740;22.908;2023-02-14T00:57:44;94426.53;;;-3.01;73.94
45793;BME280;31495;42.740;22.908;2023-02-14T00:58:44;94453.66;;;-2.76;74.87
45793;BME280;31495;42.740;22.908;2023-02-14T00:59:44;94398.44;;;-3.11;74.71
45793;BME280;31495;42.740;22.908;2023-02-14T01:00:43;94453.50;;;-2.60;75.08
45793;BME280;31495;42.740;22.908;2023-02-14T01:01:43;94379.41;;;-3.04;74.57
45793;BME280;31495;42.740;22.908;2023-02-14T01:02:42;94444.88;;;-2.58;74.38
45793;BME280;31495;42.740;22.908;2023-02-14T01:03:42;94366.25;;;-2.96;74.44
45793;BME280;31495;42.740;22.908;2023-02-14T01:04:41;94441.88;;;-2.37;74.43
45793;BME280;31495;42.740;22.908;2023-02-14T01:05:41;94450.59;;;-2.41;74.50
45793;BME280;31495;42.740;22.908;2023-02-14T01:06:40;94453.66;;;-2.36;74.71
45793;BME280;31495;42.740;22.908;2023-02-14T01:07:40;94381.81;;;-2.75;75.98
45793;BME280;31495;42.740;22.908;2023-02-14T01:08:39;94445.72;;;-2.31;75.50
45793;BME280;31495;42.740;22.908;2023-02-14T01:09:38;94457.63;;;-2.19;75.23
45793;BME280;31495;42.740;22.908;2023-02-14T01:10:38;94422.41;;;-2.36;75.57
45793;BME280;31495;42.740;22.908;2023-02-14T01:11:38;94434.59;;;-2.29;75.42
45793;BME280;31495;42.740;22.908;2023-02-14T01:12:38;94451.03;;;-2.09;75.28
45793;BME280;31495;42.740;22.908;2023-02-14T01:13:38;94396.88;;;-2.33;75.29
45793;BME280;31495;42.740;22.908;2023-02-14T01:14:38;94442.31;;;-2.05;75.31
45793;BME280;31495;42.740;22.908;2023-02-14T01:15:41;94442.53;;;-2.08;76.65
45793;BME280;31495;42.740;22.908;2023-02-14T01:16:41;94422.44;;;-2.11;77.95
45793;BME280;31495;42.740;22.908;2023-02-14T01:17:41;94426.88;;;-1.89;78.49
45793;BME280;31495;42.740;22.908;2023-02-14T01:18:41;94409.47;;;-1.93;77.79
45793;BME280;31495;42.740;22.908;2023-02-14T01:19:41;94401.31;;;-1.98;76.88
45793;BME280;31495;42.740;22.908;2023-02-14T01:20:40;94428.50;;;-1.75;75.41
45793;BME280;31495;42.740;22.908;2023-02-14T01:21:40;94397.28;;;-2.01;73.90
45793;BME280;31495;42.740;22.908;2023-02-14T01:22:40;94432.19;;;-1.92;74.25
45793;BME280;31495;42.740;22.908;2023-02-14T01:23:40;94439.69;;;-1.90;75.06
45793;BME280;31495;42.740;22.908;2023-02-14T01:24:39;94364.59;;;-2.31;75.36
45793;BME280;31495;42.740;22.908;2023-02-14T01:25:39;94421.22;;;-1.92;75.89
45793;BME280;31495;42.740;22.908;2023-02-14T01:26:39;94419.28;;;-1.89;76.54
45793;BME280;31495;42.740;22.908;2023-02-14T01:27:39;94351.84;;;-2.30;76.66
45793;BME280;31495;42.740;22.908;2023-02-14T01:28:39;94363.50;;;-2.27;78.26
45793;BME280;31495;42.740;22.908;2023-02-14T01:29:39;94427.91;;;-1.78;79.39
45793;BME280;31495;42.740;22.908;2023-02-14T01:30:38;94391.56;;;-1.79;76.69
45793;BME280;31495;42.740;22.908;2023-02-14T01:31:38;94361.97;;;-1.91;76.06
45793;BME280;31495;42.740;22.908;2023-02-14T01:32:37;94408.00;;;-1.59;76.38
45793;BME280;31495;42.740;22.908;2023-02-14T01:33:38;94395.13;;;-1.69;76.49
45793;BME280;31495;42.740;22.908;2023-02-14T01:34:38;94407.78;;;-1.56;76.57
45793;BME280;31495;42.740;22.908;2023-02-14T01:35:37;94420.63;;;-1.46;75.95
45793;BME280;31495;42.740;22.908;2023-02-14T01:36:38;94375.72;;;-1.70;76.12
45793;BME280;31495;42.740;22.908;2023-02-14T01:37:38;94438.81;;;-1.39;76.24
45793;BME280;31495;42.740;22.908;2023-02-14T01:38:38;94369.13;;;-1.72;75.80
45793;BME280;31495;42.740;22.908;2023-02-14T01:39:37;94396.50;;;-1.52;75.53
45793;BME280;31495;42.740;22.908;2023-02-14T01:40:42;94416.34;;;-1.33;74.81
45793;BME280;31495;42.740;22.908;2023-02-14T01:41:43;94429.53;;;-1.03;74.54
45793;BME280;31495;42.740;22.908;2023-02-14T01:42:43;94385.69;;;-1.30;73.70
45793;BME280;31495;42.740;22.908;2023-02-14T01:43:56;94423.59;;;-1.15;73.39
45793;BME280;31495;42.740;22.908;2023-02-14T01:45:06;94313.16;;;-1.95;73.75
45793;BME280;31495;42.740;22.908;2023-02-14T01:46:07;94410.06;;;-1.40;74.03
45793;BME280;31495;42.740;22.908;2023-02-14T01:47:08;94420.41;;;-1.30;74.08
45793;BME280;31495;42.740;22.908;2023-02-14T01:48:09;94354.63;;;-1.70;74.29
45793;BME280;31495;42.740;22.908;2023-02-14T01:50:20;94419.63;;;-1.43;73.25
45793;BME280;31495;42.740;22.908;2023-02-14T01:51:22;94368.31;;;-1.73;72.81
45793;BME280;31495;42.740;22.908;2023-02-14T01:52:26;94412.41;;;-1.50;72.90
45793;BME280;31495;42.740;22.908;2023-02-14T01:53:27;94367.31;;;-1.83;72.68
45793;BME280;31495;42.740;22.908;2023-02-14T01:54:28;94361.38;;;-1.95;73.01
45793;BME280;31495;42.740;22.908;2023-02-14T01:55:35;94361.88;;;-2.03;72.93
45793;BME280;31495;42.740;22.908;2023-02-14T01:56:44;94405.38;;;-1.83;73.44
45793;BME280;31495;42.740;22.908;2023-02-14T01:57:49;94357.44;;;-2.25;73.55
45793;BME280;31495;42.740;22.908;2023-02-14T01:58:53;94405.50;;;-1.97;73.76
45793;BME280;31495;42.740;22.908;2023-02-14T01:59:56;94423.44;;;-2.00;74.19
45793;BME280;31495;42.740;22.908;2023-02-14T02:01:17;94420.91;;;-2.00;74.07
45793;BME280;31495;42.740;22.908;2023-02-14T02:02:17;94414.84;;;-1.98;74.00
45793;BME280;31495;42.740;22.908;2023-02-14T02:04:10;94419.41;;;-1.90;73.82
45793;BME280;31495;42.740;22.908;2023-02-14T02:04:44;94384.69;;;-2.15;73.97
45793;BME280;31495;42.740;22.908;2023-02-14T02:05:47;94361.06;;;-2.29;73.49
45793;BME280;31495;42.740;22.908;2023-02-14T02:06:55;94390.88;;;-2.07;73.43
45793;BME280;31495;42.740;22.908;2023-02-14T02:07:57;94408.41;;;-1.91;73.15
45793;BME280;31495;42.740;22.908;2023-02-14T02:10:07;94401.75;;;-2.05;72.81
45793;BME280;31495;42.740;22.908;2023-02-14T02:11:07;94355.41;;;-2.32;72.66
45793;BME280;31495;42.740;22.908;2023-02-14T02:12:07;94380.34;;;-2.26;72.99
45793;BME280;31495;42.740;22.908;2023-02-14T02:13:08;94374.34;;;-2.25;73.16
45793;BME280;31495;42.740;22.908;2023-02-14T02:14:18;94340.78;;;-2.54;73.11
45793;BME280;31495;42.740;22.908;2023-02-14T02:15:21;94370.72;;;-2.34;73.23
45793;BME280;31495;42.740;22.908;2023-02-14T02:21:53;94394.22;;;-2.45;73.98
45793;BME280;31495;42.740;22.908;2023-02-14T02:29:26;94397.47;;;-2.30;72.38
45793;BME280;31495;42.740;22.908;2023-02-14T02:33:12;94372.06;;;-2.81;73.96
45793;BME280;31495;42.740;22.908;2023-02-14T02:35:19;94388.19;;;-2.69;74.18
45793;BME280;31495;42.740;22.908;2023-02-14T02:44:02;94371.59;;;-2.73;74.29
45793;BME280;31495;42.740;22.908;2023-02-14T02:45:23;94374.94;;;-2.60;74.37
45793;BME280;31495;42.740;22.908;2023-02-14T02:46:36;94379.72;;;-2.55;74.03
45793;BME280;31495;42.740;22.908;2023-02-14T02:47:58;94372.31;;;-2.59;74.19
45793;BME280;31495;42.740;22.908;2023-02-14T02:49:29;94373.53;;;-2.51;74.30
45793;BME280;31495;42.740;22.908;2023-02-14T02:50:52;94309.66;;;-2.95;74.13
45793;BME280;31495;42.740;22.908;2023-02-14T02:53:48;94384.19;;;-2.59;74.66
45793;BME280;31495;42.740;22.908;2023-02-14T02:54:59;94400.09;;;-2.57;74.81
45793;BME280;31495;42.740;22.908;2023-02-14T02:56:10;94407.69;;;-2.57;74.63
45793;BME280;31495;42.740;22.908;2023-02-14T02:57:36;94373.63;;;-2.53;77.21
45793;BME280;31495;42.740;22.908;2023-02-14T02:58:42;94398.28;;;-2.42;76.93
45793;BME280;31495;42.740;22.908;2023-02-14T02:59:44;94401.63;;;-2.42;77.28
45793;BME280;31495;42.740;22.908;2023-02-14T03:00:46;94399.59;;;-2.36;76.79
45793;BME280;31495;42.740;22.908;2023-02-14T03:02:51;94398.47;;;-2.45;76.71
45793;BME280;31495;42.740;22.908;2023-02-14T03:04:14;94399.47;;;-2.61;77.30
45793;BME280;31495;42.740;22.908;2023-02-14T03:05:35;94389.66;;;-2.52;77.48
45793;BME280;31495;42.740;22.908;2023-02-14T03:06:35;94392.28;;;-2.54;77.80
45793;BME280;31495;42.740;22.908;2023-02-14T03:07:36;94285.72;;;-3.04;77.49
45793;BME280;31495;42.740;22.908;2023-02-14T03:08:39;94316.94;;;-2.78;77.44
45793;BME280;31495;42.740;22.908;2023-02-14T03:10:40;94382.06;;;-2.27;78.62
45793;BME280;31495;42.740;22.908;2023-02-14T03:11:48;94323.03;;;-2.42;79.48
45793;BME280;31495;42.740;22.908;2023-02-14T03:14:34;94372.31;;;-1.94;79.45
45793;BME280;31495;42.740;22.908;2023-02-14T03:18:32;94373.31;;;-1.97;77.33
45793;BME280;31495;42.740;22.908;2023-02-14T03:20:02;94341.69;;;-2.04;77.25
45793;BME280;31495;42.740;22.908;2023-02-14T03:22:23;94360.97;;;-1.64;78.75
45793;BME280;31495;42.740;22.908;2023-02-14T03:23:32;94284.63;;;-1.86;78.02
45793;BME280;31495;42.740;22.908;2023-02-14T03:26:48;94345.47;;;-1.36;77.26
45793;BME280;31495;42.740;22.908;2023-02-14T03:28:16;94333.63;;;-1.24;76.83
45793;BME280;31495;42.740;22.908;2023-02-14T03:31:56;94233.56;;;-1.81;77.03
45793;BME280;31495;42.740;22.908;2023-02-14T03:33:15;94299.28;;;-1.41;76.88
45793;BME280;31495;42.740;22.908;2023-02-14T03:34:22;94286.72;;;-1.42;76.95
45793;BME280;31495;42.740;22.908;2023-02-14T03:35:31;94278.56;;;-1.59;76.29
45793;BME280;31495;42.740;22.908;2023-02-14T03:36:46;94338.06;;;-1.15;76.47
45793;BME280;31495;42.740;22.908;2023-02-14T03:39:15;94269.47;;;-1.50;76.49
45793;BME280;31495;42.740;22.908;2023-02-14T03:40:31;94321.56;;;-1.09;76.01
45793;BME280;31495;42.740;22.908;2023-02-14T03:41:37;94284.66;;;-1.37;76.07
45793;BME280;31495;42.740;22.908;2023-02-14T03:42:43;94261.16;;;-1.52;75.56
45793;BME280;31495;42.740;22.908;2023-02-14T03:43:52;94329.50;;;-1.14;76.18
45793;BME280;31495;42.740;22.908;2023-02-14T03:44:54;94343.69;;;-1.22;76.13
45793;BME280;31495;42.740;22.908;2023-02-14T03:47:33;94344.16;;;-1.17;76.24
45793;BME280;31495;42.740;22.908;2023-02-14T03:48:37;94330.09;;;-1.21;76.41
45793;BME280;31495;42.740;22.908;2023-02-14T03:49:46;94223.34;;;-1.92;76.30
45793;BME280;31495;42.740;22.908;2023-02-14T03:50:49;94340.81;;;-1.18;76.42
45793;BME280;31495;42.740;22.908;2023-02-14T03:51:53;94342.91;;;-1.12;75.77
45793;BME280;31495;42.740;22.908;2023-02-14T03:52:55;94331.09;;;-1.24;76.09
45793;BME280;31495;42.740;22.908;2023-02-14T03:53:57;94330.34;;;-1.37;76.22
45793;BME280;31495;42.740;22.908;2023-02-14T03:54:59;94296.22;;;-1.57;76.53
45793;BME280;31495;42.740;22.908;2023-02-14T03:56:14;94327.50;;;-1.33;76.41
45793;BME280;31495;42.740;22.908;2023-02-14T03:57:29;94323.75;;;-1.16;75.87
45793;BME280;31495;42.740;22.908;2023-02-14T03:58:35;94335.91;;;-1.08;75.56
45793;BME280;31495;42.740;22.908;2023-02-14T03:59:35;94332.53;;;-1.08;75.20
45793;BME280;31495;42.740;22.908;2023-02-14T04:00:37;94330.34;;;-1.13;74.86
45793;BME280;31495;42.740;22.908;2023-02-14T04:02:51;94328.25;;;-1.19;74.53
45793;BME280;31495;42.740;22.908;2023-02-14T04:03:54;94235.94;;;-1.67;74.26
45793;BME280;31495;42.740;22.908;2023-02-14T04:04:57;94299.72;;;-1.47;74.31
45793;BME280;31495;42.740;22.908;2023-02-14T04:05:59;94291.72;;;-1.54;74.50
45793;BME280;31495;42.740;22.908;2023-02-14T04:06:59;94329.03;;;-1.19;74.12
45793;BME280;31495;42.740;22.908;2023-02-14T04:08:05;94260.31;;;-1.64;73.97
45793;BME280;31495;42.740;22.908;2023-02-14T04:09:05;94306.03;;;-1.28;74.22
45793;BME280;31495;42.740;22.908;2023-02-14T04:10:05;94233.44;;;-1.79;74.42
45793;BME280;31495;42.740;22.908;2023-02-14T04:11:05;94335.06;;;-1.08;74.07
45793;BME280;31495;42.740;22.908;2023-02-14T04:12:05;94332.88;;;-1.13;74.35
45793;BME280;31495;42.740;22.908;2023-02-14T04:13:05;94295.44;;;-1.46;75.17
45793;BME280;31495;42.740;22.908;2023-02-14T04:14:05;94328.28;;;-1.32;75.85
45793;BME280;31495;42.740;22.908;2023-02-14T04:15:05;94305.50;;;-1.45;76.32
45793;BME280;31495;42.740;22.908;2023-02-14T04:16:05;94338.28;;;-1.18;76.89
45793;BME280;31495;42.740;22.908;2023-02-14T04:17:05;94337.78;;;-0.99;76.86
45793;BME280;31495;42.740;22.908;2023-02-14T04:18:23;94277.72;;;-1.35;76.76
45793;BME280;31495;42.740;22.908;2023-02-14T04:19:42;94298.13;;;-1.13;77.08
45793;BME280;31495;42.740;22.908;2023-02-14T04:20:41;94326.97;;;-0.89;76.59
45793;BME280;31495;42.740;22.908;2023-02-14T04:21:40;94334.63;;;-0.78;76.18
45793;BME280;31495;42.740;22.908;2023-02-14T04:22:40;94279.09;;;-1.07;76.04
45793;BME280;31495;42.740;22.908;2023-02-14T04:23:39;94295.66;;;-0.90;75.87
45793;BME280;31495;42.740;22.908;2023-02-14T04:24:39;94324.63;;;-0.57;75.88
45793;BME280;31495;42.740;22.908;2023-02-14T04:25:39;94323.69;;;-0.56;75.78
45793;BME280;31495;42.740;22.908;2023-02-14T04:26:40;94274.19;;;-0.86;75.54
45793;BME280;31495;42.740;22.908;2023-02-14T04:27:52;94292.09;;;-0.76;75.70
45793;BME280;31495;42.740;22.908;2023-02-14T04:28:52;94321.25;;;-0.58;75.69
45793;BME280;31495;42.740;22.908;2023-02-14T04:29:51;94325.44;;;-0.45;75.51
45793;BME280;31495;42.740;22.908;2023-02-14T04:30:50;94273.59;;;-0.89;75.36
45793;BME280;31495;42.740;22.908;2023-02-14T04:31:50;94327.97;;;-0.57;75.81
45793;BME280;31495;42.740;22.908;2023-02-14T04:32:49;94280.09;;;-0.74;75.45
45793;BME280;31495;42.740;22.908;2023-02-14T04:33:49;94304.06;;;-0.54;75.27
45793;BME280;31495;42.740;22.908;2023-02-14T04:34:49;94294.00;;;-0.56;75.21
45793;BME280;31495;42.740;22.908;2023-02-14T04:35:48;94324.06;;;-0.38;75.17
45793;BME280;31495;42.740;22.908;2023-02-14T04:36:48;94292.59;;;-0.60;75.35
45793;BME280;31495;42.740;22.908;2023-02-14T04:37:47;94280.91;;;-0.51;75.13
45793;BME280;31495;42.740;22.908;2023-02-14T04:38:47;94314.94;;;-0.29;74.96
45793;BME280;31495;42.740;22.908;2023-02-14T04:39:47;94255.75;;;-0.54;74.71
45793;BME280;31495;42.740;22.908;2023-02-14T04:40:50;94250.56;;;-0.52;74.65
45793;BME280;31495;42.740;22.908;2023-02-14T04:41:49;94314.13;;;-0.19;74.66
45793;BME280;31495;42.740;22.908;2023-02-14T04:42:49;94302.00;;;-0.26;74.93
45793;BME280;31495;42.740;22.908;2023-02-14T04:43:48;94300.94;;;-0.24;74.79
45793;BME280;31495;42.740;22.908;2023-02-14T04:44:48;94295.06;;;-0.35;75.18
45793;BME280;31495;42.740;22.908;2023-02-14T04:45:47;94257.00;;;-0.60;74.99
45793;BME280;31495;42.740;22.908;2023-02-14T04:46:47;94308.34;;;-0.32;75.58
45793;BME280;31495;42.740;22.908;2023-02-14T04:47:46;94301.97;;;-0.15;74.36
45793;BME280;31495;42.740;22.908;2023-02-14T04:48:46;94285.81;;;-0.25;73.46
45793;BME280;31495;42.740;22.908;2023-02-14T04:49:46;94256.22;;;-0.49;73.27
45793;BME280;31495;42.740;22.908;2023-02-14T04:50:52;94235.75;;;-0.70;73.49
45793;BME280;31495;42.740;22.908;2023-02-14T04:51:52;94241.88;;;-0.61;73.81
45793;BME280;31495;42.740;22.908;2023-02-14T04:52:52;94291.44;;;-0.33;74.31
45793;BME280;31495;42.740;22.908;2023-02-14T04:53:52;94250.41;;;-0.51;74.25
45793;BME280;31495;42.740;22.908;2023-02-14T04:54:51;94262.31;;;-0.51;75.04
45793;BME280;31495;42.740;22.908;2023-02-14T04:55:51;94290.44;;;-0.30;74.81
45793;BME280;31495;42.740;22.908;2023-02-14T04:56:50;94251.25;;;-0.50;74.19
45793;BME280;31495;42.740;22.908;2023-02-14T04:57:50;94290.78;;;-0.35;74.17
45793;BME280;31495;42.740;22.908;2023-02-14T04:58:49;94234.94;;;-0.70;74.42
45793;BME280;31495;42.740;22.908;2023-02-14T04:59:49;94295.06;;;-0.35;74.19
45793;BME280;31495;42.740;22.908;2023-02-14T05:00:48;94277.81;;;-0.43;73.95
45793;BME280;31495;42.740;22.908;2023-02-14T05:01:48;94300.72;;;-0.32;73.10
45793;BME280;31495;42.740;22.908;2023-02-14T05:02:47;94293.31;;;-0.46;73.10
45793;BME280;31495;42.740;22.908;2023-02-14T05:03:47;94279.44;;;-0.53;73.00
45793;BME280;31495;42.740;22.908;2023-02-14T05:04:46;94231.91;;;-0.98;73.29
45793;BME280;31495;42.740;22.908;2023-02-14T05:05:45;94295.03;;;-0.58;73.56
45793;BME280;31495;42.740;22.908;2023-02-14T05:06:45;94248.41;;;-0.93;73.67
45793;BME280;31495;42.740;22.908;2023-02-14T05:07:44;94254.78;;;-0.87;73.81
45793;BME280;31495;42.740;22.908;2023-02-14T05:08:45;94248.53;;;-0.94;73.92
45793;BME280;31495;42.740;22.908;2023-02-14T05:09:45;94278.72;;;-0.78;74.35
45793;BME280;31495;42.740;22.908;2023-02-14T05:10:44;94274.31;;;-0.76;74.27
45793;BME280;31495;42.740;22.908;2023-02-14T05:11:44;94263.56;;;-0.80;74.79
45793;BME280;31495;42.740;22.908;2023-02-14T05:12:43;94285.06;;;-0.72;74.79
45793;BME280;31495;42.740;22.908;2023-02-14T05:13:43;94253.38;;;-0.91;74.51
45793;BME280;31495;42.740;22.908;2023-02-14T05:14:42;94282.75;;;-0.76;75.27
45793;BME280;31495;42.740;22.908;2023-02-14T05:15:43;94235.81;;;-0.94;75.13
45793;BME280;31495;42.740;22.908;2023-02-14T05:16:43;94279.41;;;-0.65;75.22
45793;BME280;31495;42.740;22.908;2023-02-14T05:17:42;94250.03;;;-0.91;76.06
45793;BME280;31495;42.740;22.908;2023-02-14T05:18:42;94289.47;;;-0.63;76.60
45793;BME280;31495;42.740;22.908;2023-02-14T05:19:41;94263.25;;;-0.75;76.06
45793;BME280;31495;42.740;22.908;2023-02-14T05:20:41;94285.78;;;-0.70;76.63
45793;BME280;31495;42.740;22.908;2023-02-14T05:21:40;94290.50;;;-0.66;76.53
45793;BME280;31495;42.740;22.908;2023-02-14T05:22:39;94300.66;;;-0.66;76.50
45793;BME280;31495;42.740;22.908;2023-02-14T05:23:39;94283.81;;;-0.67;76.52
45793;BME280;31495;42.740;22.908;2023-02-14T05:24:39;94282.44;;;-0.60;76.62
45793;BME280;31495;42.740;22.908;2023-02-14T05:25:39;94247.66;;;-0.70;76.22
45793;BME280;31495;42.740;22.908;2023-02-14T05:26:39;94305.56;;;-0.40;76.05
45793;BME280;31495;42.740;22.908;2023-02-14T05:27:39;94294.34;;;-0.49;75.96
45793;BME280;31495;42.740;22.908;2023-02-14T05:28:38;94301.16;;;-0.38;75.80
45793;BME280;31495;42.740;22.908;2023-02-14T05:29:39;94271.47;;;-0.60;75.88
45793;BME280;31495;42.740;22.908;2023-02-14T05:30:39;94270.88;;;-0.64;75.93
45793;BME280;31495;42.740;22.908;2023-02-14T05:31:38;94293.53;;;-0.38;75.92
45793;BME280;31495;42.740;22.908;2023-02-14T05:32:38;94315.16;;;-0.32;75.88
45793;BME280;31495;42.740;22.908;2023-02-14T05:33:37;94233.31;;;-0.71;75.81
45793;BME280;31495;42.740;22.908;2023-02-14T05:34:36;94236.66;;;-0.60;75.08
45793;BME280;31495;42.740;22.908;2023-02-14T05:35:36;94309.63;;;-0.26;75.53
45793;BME280;31495;42.740;22.908;2023-02-14T05:36:35;94303.38;;;-0.33;75.94
45793;BME280;31495;42.740;22.908;2023-02-14T05:37:35;94308.69;;;-0.25;75.61
45793;BME280;31495;42.740;22.908;2023-02-14T05:38:34;94258.41;;;-0.56;75.15
45793;BME280;31495;42.740;22.908;2023-02-14T05:39:34;94307.88;;;-0.26;75.83
45793;BME280;31495;42.740;22.908;2023-02-14T05:40:33;94305.59;;;-0.17;75.43
45793;BME280;31495;42.740;22.908;2023-02-14T05:41:33;94275.97;;;-0.41;75.25
45793;BME280;31495;42.740;22.908;2023-02-14T05:42:32;94303.38;;;-0.22;75.20
45793;BME280;31495;42.740;22.908;2023-02-14T05:43:32;94303.72;;;-0.27;74.93
45793;BME280;31495;42.740;22.908;2023-02-14T05:44:31;94307.78;;;-0.24;75.03
45793;BME280;31495;42.740;22.908;2023-02-14T05:45:30;94303.72;;;-0.27;75.30
45793;BME280;31495;42.740;22.908;2023-02-14T05:46:30;94266.94;;;-0.57;75.44
45793;BME280;31495;42.740;22.908;2023-02-14T05:47:29;94231.34;;;-0.57;74.82
45793;BME280;31495;42.740;22.908;2023-02-14T05:48:29;94303.59;;;-0.14;75.12
45793;BME280;31495;42.740;22.908;2023-02-14T05:49:29;94281.88;;;-0.18;75.32
45793;BME280;31495;42.740;22.908;2023-02-14T05:50:29;94305.94;;;-0.11;74.79
45793;BME280;31495;42.740;22.908;2023-02-14T05:51:28;94299.31;;;-0.13;75.36
45793;BME280;31495;42.740;22.908;2023-02-14T05:52:28;94268.69;;;-0.34;75.53
45793;BME280;31495;42.740;22.908;2023-02-14T05:53:27;94298.63;;;-0.04;75.45
45793;BME280;31495;42.740;22.908;2023-02-14T05:54:27;94264.88;;;-0.29;75.73
45793;BME280;31495;42.740;22.908;2023-02-14T05:55:26;94295.75;;;-0.11;75.83
45793;BME280;31495;42.740;22.908;2023-02-14T05:56:26;94257.03;;;-0.26;75.24
45793;BME280;31495;42.740;22.908;2023-02-14T05:57:25;94296.66;;;-0.01;75.50
45793;BME280;31495;42.740;22.908;2023-02-14T05:58:25;94292.25;;;0.02;75.00
45793;BME280;31495;42.740;22.908;2023-02-14T05:59:24;94301.19;;;-0.04;75.48
45793;BME280;31495;42.740;22.908;2023-02-14T06:00:24;94246.06;;;-0.38;75.38
45793;BME280;31495;42.740;22.908;2023-02-14T06:01:23;94246.28;;;-0.41;75.86
45793;BME280;31495;42.740;22.908;2023-02-14T06:02:23;94269.03;;;-0.16;75.37
45793;BME280;31495;42.740;22.908;2023-02-14T06:03:22;94260.47;;;-0.15;75.56
45793;BME280;31495;42.740;22.908;2023-02-14T06:04:22;94256.69;;;-0.10;75.64
45793;BME280;31495;42.740;22.908;2023-02-14T06:05:21;94225.09;;;-0.30;75.37
45793;BME280;31495;42.740;22.908;2023-02-14T06:06:20;94263.00;;;-0.04;75.66
45793;BME280;31495;42.740;22.908;2023-02-14T06:07:20;94270.75;;;0.06;74.99
45793;BME280;31495;42.740;22.908;2023-02-14T06:08:19;94291.09;;;0.28;74.99
45793;BME280;31495;42.740;22.908;2023-02-14T06:09:19;94297.44;;;0.34;74.84